createdAt,value
2019-06-08T00:04:33.759Z,25.40
2019-06-08T00:09:37.310Z,25.32
2019-06-08T00:14:40.857Z,25.29
2019-06-08T00:19:44.304Z,25.30
2019-06-08T00:24:48.243Z,25.31
2019-06-08T00:29:51.714Z,25.30
2019-06-08T00:34:55.355Z,25.29
2019-06-08T00:39:58.810Z,25.29
2019-06-08T00:45:02.365Z,25.28
2019-06-08T00:50:07.502Z,25.28
2019-06-08T00:55:11.323Z,25.27
2019-06-08T01:00:15.528Z,25.26
2019-06-08T01:05:19.875Z,25.23
2019-06-08T01:10:25.552Z,25.25
2019-06-08T01:15:33.817Z,25.22
2019-06-08T01:20:34.608Z,25.22
2019-06-08T01:25:38.448Z,25.23
2019-06-08T01:30:41.932Z,25.23
2019-06-08T01:35:45.390Z,25.22
2019-06-08T01:40:48.858Z,25.21
2019-06-08T01:45:52.685Z,25.23
2019-06-08T01:50:56.144Z,25.21
2019-06-08T01:55:59.645Z,25.20
2019-06-08T02:01:03.700Z,25.20
2019-06-08T02:06:07.213Z,25.19
2019-06-08T02:11:10.633Z,25.16
2019-06-08T02:16:14.110Z,25.15
2019-06-08T02:21:17.752Z,25.16
2019-06-08T02:26:21.486Z,25.15
2019-06-08T02:31:24.972Z,25.15
2019-06-08T02:36:29.429Z,25.13
2019-06-08T02:41:35.187Z,25.13
2019-06-08T02:46:40.451Z,25.11
2019-06-08T02:51:44.469Z,25.16
2019-06-08T02:56:49.938Z,25.14
2019-06-08T03:01:55.858Z,25.14
2019-06-08T03:07:01.324Z,25.12
2019-06-08T03:12:05.577Z,25.11
2019-06-08T03:17:09.053Z,25.10
2019-06-08T03:22:12.534Z,25.07
2019-06-08T03:27:16.279Z,25.08
2019-06-08T03:32:19.764Z,25.08
2019-06-08T03:37:23.213Z,25.07
2019-06-08T03:42:26.685Z,25.07
2019-06-08T03:47:30.399Z,25.06
2019-06-08T03:52:35.426Z,25.08
2019-06-08T03:57:40.423Z,25.07
2019-06-08T04:02:46.637Z,25.05
2019-06-08T04:07:50.458Z,25.05
2019-06-08T04:12:54.213Z,25.04
2019-06-08T04:17:57.678Z,25.06
2019-06-08T04:23:01.296Z,25.06
2019-06-08T04:28:05.157Z,25.06
2019-06-08T04:33:08.617Z,25.04
2019-06-08T04:38:12.087Z,25.04
2019-06-08T04:43:15.551Z,25.06
2019-06-08T04:48:19.054Z,25.03
2019-06-08T04:53:22.505Z,25.02
2019-06-08T04:58:25.978Z,25.00
2019-06-08T05:03:29.455Z,25.00
2019-06-08T05:08:33.077Z,25.01
2019-06-08T05:13:36.534Z,24.98
2019-06-08T05:18:41.279Z,25.00
2019-06-08T05:23:45.584Z,24.99
2019-06-08T05:28:49.590Z,24.98
2019-06-08T05:33:53.170Z,25.00
2019-06-08T05:38:56.648Z,25.00
2019-06-08T05:44:00.110Z,25.01
2019-06-08T05:49:04.583Z,25.04
2019-06-08T05:54:08.111Z,25.01
2019-06-08T05:59:11.577Z,25.00
2019-06-08T06:04:15.154Z,25.04
2019-06-08T06:09:18.916Z,25.04
2019-06-08T06:14:22.376Z,25.01
2019-06-08T06:19:25.849Z,24.99
2019-06-08T06:24:29.341Z,25.00
2019-06-08T06:29:32.992Z,25.00
2019-06-08T06:34:36.535Z,24.99
2019-06-08T06:39:40.007Z,24.98
2019-06-08T06:44:45.722Z,24.98
2019-06-08T06:49:48.867Z,25.04
2019-06-08T06:54:53.311Z,25.04
2019-06-08T06:59:56.811Z,25.03
2019-06-08T07:05:00.589Z,25.01
2019-06-08T07:10:07.794Z,25.00
2019-06-08T07:15:11.604Z,25.06
2019-06-08T07:20:15.144Z,25.08
2019-06-08T07:25:18.599Z,25.11
2019-06-08T07:30:23.875Z,25.11
2019-06-08T07:35:27.315Z,25.19
2019-06-08T07:40:30.785Z,25.09
2019-06-08T07:45:34.255Z,25.22
2019-06-08T07:50:37.738Z,25.22
2019-06-08T07:55:41.203Z,25.25
2019-06-08T08:00:44.670Z,25.16
2019-06-08T08:05:48.246Z,25.18
2019-06-08T08:10:52.381Z,25.16
2019-06-08T08:15:58.753Z,24.98
2019-06-08T08:21:09.125Z,25.15
2019-06-08T08:26:06.412Z,25.31
2019-06-08T08:31:11.446Z,25.34
2019-06-08T08:36:15.424Z,25.48
2019-06-08T08:41:18.899Z,25.48
2019-06-08T08:46:22.387Z,25.22
2019-06-08T08:51:27.942Z,25.30
2019-06-08T08:56:31.263Z,25.26
2019-06-08T09:01:34.713Z,25.26
2019-06-08T09:06:38.375Z,25.19
2019-06-08T09:11:41.988Z,25.28
2019-06-08T09:16:47.983Z,25.29
2019-06-08T09:21:52.523Z,25.26
2019-06-08T09:27:00.073Z,25.22
2019-06-08T09:32:03.269Z,25.22
2019-06-08T09:37:08.056Z,25.22
2019-06-08T09:42:12.279Z,25.16
2019-06-08T09:47:17.948Z,25.14
2019-06-08T09:52:21.758Z,25.21
2019-06-08T09:57:25.390Z,25.27
2019-06-08T10:02:28.868Z,25.19
2019-06-08T10:07:32.460Z,25.30
2019-06-08T10:12:38.226Z,25.40
2019-06-08T10:17:41.238Z,25.43
2019-06-08T10:22:44.713Z,25.34
2019-06-08T10:27:48.169Z,25.38
2019-06-08T10:32:51.909Z,25.27
2019-06-08T10:37:57.775Z,25.30
2019-06-08T10:43:02.735Z,25.33
2019-06-08T10:48:06.396Z,25.23
2019-06-08T10:53:11.908Z,25.22
2019-06-08T10:58:15.210Z,25.28
2019-06-08T11:03:18.857Z,25.25
2019-06-08T11:08:22.387Z,25.21
2019-06-08T11:13:28.122Z,25.29
2019-06-08T11:18:31.149Z,25.32
2019-06-08T11:23:34.673Z,25.30
2019-06-08T11:28:38.400Z,25.16
2019-06-08T11:33:42.430Z,25.20
2019-06-08T11:38:47.801Z,25.28
2019-06-08T11:43:51.135Z,25.25
2019-06-08T11:48:54.608Z,25.25
2019-06-08T11:53:59.429Z,25.32
2019-06-08T11:59:03.645Z,25.40
2019-06-08T12:04:07.847Z,25.45
2019-06-08T12:09:12.726Z,25.37
2019-06-08T12:14:17.783Z,25.31
2019-06-08T12:19:21.681Z,25.31
2019-06-08T12:24:40.563Z,25.34
2019-06-08T12:29:30.363Z,25.40
2019-06-08T12:34:34.095Z,25.45
2019-06-08T12:39:38.706Z,25.47
2019-06-08T12:44:43.735Z,25.42
2019-06-08T12:49:48.417Z,25.33
2019-06-08T12:55:02.507Z,25.35
2019-06-08T12:59:59.797Z,25.41
2019-06-08T13:05:02.373Z,25.39
2019-06-08T13:10:07.176Z,25.45
2019-06-08T13:15:11.629Z,25.38
2019-06-08T13:20:22.092Z,25.49
2019-06-08T13:25:37.323Z,25.54
2019-06-08T13:30:32.417Z,25.48
2019-06-08T13:35:35.774Z,25.50
2019-06-08T13:40:40.294Z,25.49
2019-06-08T13:45:43.936Z,25.47
2019-06-08T13:50:49.947Z,25.50
2019-06-08T13:55:56.531Z,25.52
2019-06-08T14:00:59.747Z,25.32
2019-06-08T14:06:03.284Z,25.40
2019-06-08T14:11:08.282Z,25.50
2019-06-08T14:16:11.861Z,25.47
2019-06-08T14:21:15.348Z,25.37
2019-06-08T14:26:20.156Z,25.45
2019-06-08T14:31:25.604Z,25.52
2019-06-08T14:36:30.435Z,25.47
2019-06-08T14:41:34.260Z,25.38
2019-06-08T14:46:41.105Z,25.55
2019-06-08T14:51:52.638Z,25.54
2019-06-08T14:56:57.856Z,25.65
2019-06-08T15:02:01.370Z,25.63
2019-06-08T15:07:04.983Z,25.51
2019-06-08T15:12:09.409Z,25.51
2019-06-08T15:17:13.083Z,25.52
2019-06-08T15:22:18.800Z,25.44
2019-06-08T15:27:23.640Z,25.54
2019-06-08T15:32:28.276Z,25.50
2019-06-08T15:37:32.456Z,25.49
2019-06-08T15:42:36.033Z,25.49
2019-06-08T15:47:40.934Z,25.55
2019-06-08T15:52:44.481Z,25.49
2019-06-08T15:57:47.954Z,25.31
2019-06-08T16:02:51.585Z,24.92
2019-06-08T16:07:55.067Z,24.78
2019-06-08T16:12:58.771Z,24.74
2019-06-08T16:18:02.183Z,24.62
2019-06-08T16:23:05.753Z,24.91
2019-06-08T16:28:09.227Z,25.00
2019-06-08T16:33:13.032Z,25.10
2019-06-08T16:38:16.974Z,25.25
2019-06-08T16:43:20.485Z,25.30
2019-06-08T16:48:24.030Z,25.31
2019-06-08T16:53:27.509Z,25.30
2019-06-08T16:58:32.123Z,25.27
2019-06-08T17:03:36.885Z,25.32
2019-06-08T17:08:42.074Z,25.37
2019-06-08T17:13:46.011Z,25.40
2019-06-08T17:18:49.489Z,25.22
2019-06-08T17:23:52.986Z,25.08
2019-06-08T17:28:56.476Z,24.92
2019-06-08T17:33:59.973Z,25.03
2019-06-08T17:39:04.679Z,25.27
2019-06-08T17:44:08.484Z,25.38
2019-06-08T17:49:11.976Z,25.46
2019-06-08T17:54:15.448Z,25.44
2019-06-08T17:59:18.990Z,25.59
2019-06-08T18:04:22.477Z,25.62
2019-06-08T18:09:28.006Z,25.62
2019-06-08T18:14:31.157Z,25.68
2019-06-08T18:19:34.638Z,25.72
2019-06-08T18:24:41.929Z,25.73
2019-06-08T18:29:46.136Z,25.73
2019-06-08T18:34:50.049Z,25.75
2019-06-08T18:39:53.720Z,25.75
2019-06-08T18:44:58.251Z,25.82
2019-06-08T18:50:01.962Z,25.63
2019-06-08T18:55:09.252Z,25.72
2019-06-08T19:00:13.160Z,25.91
2019-06-08T19:05:20.789Z,25.82
2019-06-08T19:10:33.711Z,25.79
2019-06-08T19:15:42.274Z,25.71
2019-06-08T19:20:47.724Z,25.69
2019-06-08T19:25:50.487Z,25.31
2019-06-08T19:30:54.033Z,25.27
2019-06-08T19:35:58.362Z,25.37
2019-06-08T19:41:02.279Z,25.43
2019-06-08T19:46:07.219Z,25.46
2019-06-08T19:51:11.393Z,25.48
2019-06-08T19:56:17.197Z,25.48
2019-06-08T20:01:20.049Z,25.47
2019-06-08T20:06:23.788Z,25.44
2019-06-08T20:11:29.366Z,25.42
2019-06-08T20:16:33.169Z,25.41
2019-06-08T20:21:38.090Z,25.41
2019-06-08T20:26:42.247Z,25.37
2019-06-08T20:31:48.116Z,25.38
2019-06-08T20:36:51.054Z,25.38
2019-06-08T20:41:54.688Z,25.38
2019-06-08T20:46:58.208Z,25.41
2019-06-08T20:52:02.159Z,25.37
2019-06-08T20:57:07.623Z,25.25
2019-06-08T21:02:10.963Z,25.41
2019-06-08T21:07:14.703Z,25.46
2019-06-08T21:12:18.211Z,25.50
2019-06-08T21:17:22.085Z,25.49
2019-06-08T21:22:27.775Z,25.50
2019-06-08T21:27:30.933Z,25.46
2019-06-08T21:32:34.407Z,25.49
2019-06-08T21:37:38.033Z,25.39
2019-06-08T21:42:42.281Z,25.38
2019-06-08T21:47:48.563Z,25.40
2019-06-08T21:52:51.976Z,25.34
2019-06-08T21:58:01.501Z,25.28
2019-06-08T22:03:03.026Z,25.17
2019-06-08T22:08:07.959Z,25.21
2019-06-08T22:13:12.505Z,25.21
2019-06-08T22:18:18.432Z,25.18
2019-06-08T22:23:21.733Z,25.14
2019-06-08T22:28:27.029Z,25.16
2019-06-08T22:33:30.385Z,25.11
2019-06-08T22:38:34.006Z,25.08
2019-06-08T22:43:37.641Z,25.08
2019-06-08T22:48:42.610Z,25.09
2019-06-08T22:53:47.830Z,25.03
2019-06-08T22:58:51.412Z,25.02
2019-06-08T23:03:56.335Z,25.00
2019-06-08T23:09:02.502Z,24.98
2019-06-08T23:14:12.346Z,24.99
2019-06-08T23:19:10.866Z,24.97
2019-06-08T23:24:14.365Z,24.97
2019-06-08T23:29:17.986Z,24.94
2019-06-08T23:34:23.339Z,24.93
2019-06-08T23:39:28.413Z,24.94
2019-06-08T23:44:32.299Z,24.92
2019-06-08T23:49:37.882Z,24.93
2019-06-08T23:54:41.022Z,24.92
2019-06-08T23:59:44.503Z,24.96
